createdAt,value
2022-12-06T00:00:03.760Z,-4.73
2022-12-06T00:00:44.938Z,-4.74
2022-12-06T00:01:19.042Z,-4.72
2022-12-06T00:01:53.813Z,-4.71
2022-12-06T00:02:25.975Z,-4.70
2022-12-06T00:02:58.122Z,-4.70
2022-12-06T00:03:32.955Z,-4.71
2022-12-06T00:04:07.188Z,-4.71
2022-12-06T00:04:41.912Z,-4.71
2022-12-06T00:05:14.145Z,-4.72
2022-12-06T00:05:46.688Z,-4.73
2022-12-06T00:06:23.565Z,-4.73
2022-12-06T00:06:55.958Z,-4.73
2022-12-06T00:07:28.039Z,-4.73
2022-12-06T00:08:00.235Z,-4.73
2022-12-06T00:08:35.116Z,-4.73
2022-12-06T00:09:08.124Z,-4.74
2022-12-06T00:09:40.225Z,-4.74
2022-12-06T00:10:17.804Z,-4.74
2022-12-06T00:10:50.333Z,-4.75
2022-12-06T00:11:25.169Z,-4.75
2022-12-06T00:12:00.784Z,-4.76
2022-12-06T00:12:32.858Z,-4.76
2022-12-06T00:13:05.415Z,-4.75
2022-12-06T00:13:40.924Z,-4.74
2022-12-06T00:14:13.145Z,-4.73
2022-12-06T00:14:45.270Z,-4.74
2022-12-06T00:15:20.036Z,-4.75
2022-12-06T00:15:52.189Z,-4.73
2022-12-06T00:16:25.678Z,-4.74
2022-12-06T00:17:00.448Z,-4.73
2022-12-06T00:17:32.606Z,-4.73
2022-12-06T00:18:04.798Z,-4.72
2022-12-06T00:18:41.240Z,-4.72
2022-12-06T00:19:15.595Z,-4.74
2022-12-06T00:19:50.270Z,-4.73
2022-12-06T00:20:22.403Z,-4.75
2022-12-06T00:20:54.599Z,-4.76
2022-12-06T00:21:31.356Z,-4.76
2022-12-06T00:22:03.648Z,-4.77
2022-12-06T00:22:38.426Z,-4.77
2022-12-06T00:23:10.557Z,-4.77
2022-12-06T00:23:44.681Z,-4.77
2022-12-06T00:24:21.754Z,-4.77
2022-12-06T00:24:53.944Z,-4.79
2022-12-06T00:25:28.628Z,-4.79
2022-12-06T00:26:03.750Z,-4.78
2022-12-06T00:26:37.664Z,-4.78
2022-12-06T00:27:09.864Z,-4.80
2022-12-06T00:27:44.615Z,-4.80
2022-12-06T00:28:17.135Z,-4.82
2022-12-06T00:28:52.122Z,-4.82
2022-12-06T00:29:27.251Z,-4.84
2022-12-06T00:29:59.532Z,-4.87
2022-12-06T00:30:31.805Z,-4.87
2022-12-06T00:31:09.308Z,-4.87
2022-12-06T00:31:41.656Z,-4.88
2022-12-06T00:32:19.287Z,-4.87
2022-12-06T00:32:54.432Z,-4.88
2022-12-06T00:33:26.566Z,-4.88
2022-12-06T00:33:59.303Z,-4.86
2022-12-06T00:34:34.025Z,-4.87
2022-12-06T00:35:07.303Z,-4.86
2022-12-06T00:35:39.349Z,-4.85
2022-12-06T00:36:12.884Z,-4.84
2022-12-06T00:36:48.944Z,-4.82
2022-12-06T00:37:21.081Z,-4.83
2022-12-06T00:37:53.146Z,-4.82
2022-12-06T00:38:28.600Z,-4.81
2022-12-06T00:39:02.323Z,-4.82
2022-12-06T00:39:34.426Z,-4.82
2022-12-06T00:40:10.754Z,-4.82
2022-12-06T00:40:45.524Z,-4.83
2022-12-06T00:41:19.782Z,-4.83
2022-12-06T00:41:57.466Z,-4.84
2022-12-06T00:42:29.596Z,-4.85
2022-12-06T00:43:01.812Z,-4.84
2022-12-06T00:43:37.810Z,-4.83
2022-12-06T00:44:11.112Z,-4.82
2022-12-06T00:44:45.819Z,-4.83
2022-12-06T00:45:17.942Z,-4.83
2022-12-06T00:45:50.189Z,-4.82
2022-12-06T00:46:27.333Z,-4.82
2022-12-06T00:46:59.526Z,-4.82
2022-12-06T00:47:31.631Z,-4.84
2022-12-06T00:48:06.680Z,-4.83
2022-12-06T00:48:38.940Z,-4.85
2022-12-06T00:49:11.076Z,-4.85
2022-12-06T00:49:45.766Z,-4.84
2022-12-06T00:50:17.973Z,-4.84
2022-12-06T00:50:50.424Z,-4.82
2022-12-06T00:51:26.801Z,-4.82
2022-12-06T00:51:58.896Z,-4.83
2022-12-06T00:52:30.982Z,-4.82
2022-12-06T00:53:05.962Z,-4.84
2022-12-06T00:53:38.169Z,-4.84
2022-12-06T00:54:16.938Z,-4.85
2022-12-06T00:54:49.031Z,-4.86
2022-12-06T00:55:21.127Z,-4.85
2022-12-06T00:55:56.054Z,-4.86
2022-12-06T00:56:30.807Z,-4.87
2022-12-06T00:57:03.006Z,-4.87
2022-12-06T00:57:35.100Z,-4.86
2022-12-06T00:58:09.827Z,-4.84
2022-12-06T00:58:42.486Z,-4.85
2022-12-06T00:59:17.207Z,-4.84
2022-12-06T00:59:49.437Z,-4.84
2022-12-06T01:00:21.659Z,-4.83
2022-12-06T01:00:56.421Z,-4.83
2022-12-06T01:01:33.581Z,-4.82
2022-12-06T01:02:09.682Z,-4.83
2022-12-06T01:02:41.909Z,-4.82
2022-12-06T01:03:14.783Z,-4.81
2022-12-06T01:03:48.093Z,-4.82
2022-12-06T01:04:22.831Z,-4.81
2022-12-06T01:04:55.094Z,-4.81
2022-12-06T01:05:27.628Z,-4.81
2022-12-06T01:06:07.143Z,-4.80
2022-12-06T01:06:39.344Z,-4.83
2022-12-06T01:07:11.464Z,-4.81
2022-12-06T01:07:46.241Z,-4.81
2022-12-06T01:08:19.339Z,-4.82
2022-12-06T01:08:51.477Z,-4.83
2022-12-06T01:09:26.157Z,-4.84
2022-12-06T01:09:58.620Z,-4.86
2022-12-06T01:10:31.091Z,-4.86
2022-12-06T01:11:08.781Z,-4.87
2022-12-06T01:11:40.989Z,-4.88
2022-12-06T01:12:13.084Z,-4.87
2022-12-06T01:12:47.750Z,-4.88
2022-12-06T01:13:19.877Z,-4.87
2022-12-06T01:13:52.962Z,-4.89
2022-12-06T01:14:28.035Z,-4.88
2022-12-06T01:15:00.193Z,-4.88
2022-12-06T01:15:32.354Z,-4.89
2022-12-06T01:16:09.451Z,-4.89
2022-12-06T01:16:41.784Z,-4.91
2022-12-06T01:17:16.509Z,-4.90
2022-12-06T01:17:48.639Z,-4.90
2022-12-06T01:18:21.399Z,-4.90
2022-12-06T01:18:58.527Z,-4.89
2022-12-06T01:19:30.593Z,-4.89
2022-12-06T01:20:03.241Z,-4.89
2022-12-06T01:20:37.931Z,-4.88
2022-12-06T01:21:14.906Z,-4.87
2022-12-06T01:21:48.835Z,-4.87
2022-12-06T01:22:23.509Z,-4.88
2022-12-06T01:22:55.598Z,-4.87
2022-12-06T01:23:27.705Z,-4.87
2022-12-06T01:24:02.525Z,-4.87
2022-12-06T01:24:34.629Z,-4.88
2022-12-06T01:25:07.352Z,-4.88
2022-12-06T01:25:42.038Z,-4.89
2022-12-06T01:26:19.404Z,-4.90
2022-12-06T01:26:54.305Z,-4.91
2022-12-06T01:27:26.553Z,-4.93
2022-12-06T01:27:58.701Z,-4.92
2022-12-06T01:28:30.825Z,-4.94
2022-12-06T01:29:06.434Z,-4.95
2022-12-06T01:29:39.926Z,-4.95
2022-12-06T01:30:12.757Z,-4.98
2022-12-06T01:30:44.919Z,-4.98
2022-12-06T01:31:19.883Z,-5.01
2022-12-06T01:31:52.076Z,-4.99
2022-12-06T01:32:24.952Z,-5.02
2022-12-06T01:32:59.610Z,-5.01
2022-12-06T01:33:31.727Z,-5.02
2022-12-06T01:34:03.838Z,-5.01
2022-12-06T01:34:38.939Z,-5.00
2022-12-06T01:35:11.156Z,-5.01
2022-12-06T01:35:43.618Z,-5.00
2022-12-06T01:36:22.207Z,-4.99
2022-12-06T01:36:54.345Z,-5.01
2022-12-06T01:37:26.442Z,-5.00
2022-12-06T01:38:05.964Z,-5.00
2022-12-06T01:38:38.441Z,-5.02
2022-12-06T01:39:13.796Z,-5.02
2022-12-06T01:39:46.104Z,-5.02
2022-12-06T01:40:18.435Z,-5.02
2022-12-06T01:40:53.421Z,-5.02
2022-12-06T01:41:28.880Z,-5.02
2022-12-06T01:42:01.005Z,-5.03
2022-12-06T01:42:35.707Z,-5.03
2022-12-06T01:43:29.759Z,-5.06
2022-12-06T01:44:04.599Z,-5.07
2022-12-06T01:44:43.327Z,-5.07
2022-12-06T01:45:15.681Z,-5.07
2022-12-06T01:45:50.493Z,-5.07
2022-12-06T01:46:28.751Z,-5.06
2022-12-06T01:47:03.694Z,-5.06
2022-12-06T01:47:39.411Z,-5.08
2022-12-06T01:48:11.677Z,-5.07
2022-12-06T01:48:47.036Z,-5.08
2022-12-06T01:49:23.778Z,-5.07
2022-12-06T01:50:03.041Z,-5.07
2022-12-06T01:50:38.118Z,-5.09
2022-12-06T01:51:13.404Z,-5.10
2022-12-06T01:51:53.801Z,-5.12
2022-12-06T01:52:30.463Z,-5.12
2022-12-06T01:53:07.199Z,-5.13
2022-12-06T01:53:43.113Z,-5.14
2022-12-06T01:54:17.523Z,-5.14
2022-12-06T01:54:52.384Z,-5.14
2022-12-06T01:55:28.937Z,-5.14
2022-12-06T01:56:01.689Z,-5.15
2022-12-06T01:56:40.105Z,-5.16
2022-12-06T01:57:15.421Z,-5.16
2022-12-06T01:57:48.932Z,-5.16
2022-12-06T01:58:30.251Z,-5.16
2022-12-06T01:59:02.561Z,-5.22
2022-12-06T01:59:35.372Z,-5.23
2022-12-06T02:00:11.733Z,-5.23
2022-12-06T02:00:43.872Z,-5.23
2022-12-06T02:01:16.276Z,-5.22
2022-12-06T02:01:51.981Z,-5.21
2022-12-06T02:02:24.382Z,-5.19
2022-12-06T02:03:00.748Z,-5.19
2022-12-06T02:03:36.480Z,-5.20
2022-12-06T02:04:10.021Z,-5.20
2022-12-06T02:04:43.740Z,-5.21
2022-12-06T02:05:19.728Z,-5.16
2022-12-06T02:05:52.585Z,-5.17
2022-12-06T02:06:24.895Z,-5.16
2022-12-06T02:07:01.732Z,-5.15
2022-12-06T02:07:34.228Z,-5.14
2022-12-06T02:08:09.916Z,-5.14
2022-12-06T02:08:45.049Z,-5.15
2022-12-06T02:09:18.726Z,-5.13
2022-12-06T02:09:54.881Z,-5.14
2022-12-06T02:10:27.914Z,-5.14
2022-12-06T02:11:03.089Z,-5.16
2022-12-06T02:11:40.421Z,-5.16
2022-12-06T02:12:14.359Z,-5.16
2022-12-06T02:12:49.421Z,-5.15
2022-12-06T02:13:25.165Z,-5.14
2022-12-06T02:13:57.742Z,-5.14
2022-12-06T02:14:36.012Z,-5.14
2022-12-06T02:15:09.955Z,-5.15
2022-12-06T02:15:56.596Z,-5.14
2022-12-06T02:16:48.268Z,-5.17
2022-12-06T02:17:33.700Z,-5.18
2022-12-06T02:18:16.553Z,-5.18
2022-12-06T02:18:54.386Z,-5.19
2022-12-06T02:20:02.771Z,-5.21
2022-12-06T02:20:41.824Z,-5.25
2022-12-06T02:21:23.078Z,-5.23
2022-12-06T02:22:09.071Z,-5.23
2022-12-06T02:23:10.327Z,-5.23
2022-12-06T02:24:15.081Z,-5.27
2022-12-06T02:25:02.474Z,-5.28
2022-12-06T02:26:16.278Z,-5.28
2022-12-06T02:26:54.877Z,-5.28
2022-12-06T02:27:54.306Z,-5.28
2022-12-06T02:28:50.796Z,-5.28
2022-12-06T02:29:54.959Z,-5.28
2022-12-06T02:30:43.929Z,-5.29
2022-12-06T02:31:26.005Z,-5.29
2022-12-06T02:32:01.219Z,-5.29
2022-12-06T02:32:36.971Z,-5.28
2022-12-06T02:33:18.173Z,-5.27
2022-12-06T02:33:53.257Z,-5.26
2022-12-06T02:34:32.627Z,-5.26
2022-12-06T02:35:15.110Z,-5.25
2022-12-06T02:35:52.595Z,-5.26
2022-12-06T02:36:39.866Z,-5.25
2022-12-06T02:37:15.641Z,-5.25
2022-12-06T02:37:56.425Z,-5.25
2022-12-06T02:38:35.044Z,-5.26
2022-12-06T02:39:12.004Z,-5.26
2022-12-06T02:39:51.131Z,-5.25
2022-12-06T02:40:27.364Z,-5.24
2022-12-06T02:41:02.620Z,-5.23
2022-12-06T02:41:42.264Z,-5.22
2022-12-06T02:42:18.758Z,-5.23
2022-12-06T02:42:55.937Z,-5.23
2022-12-06T02:43:36.713Z,-5.23
2022-12-06T02:44:17.658Z,-5.24
2022-12-06T02:44:53.606Z,-5.22
2022-12-06T02:45:31.858Z,-5.21
2022-12-06T02:46:09.321Z,-5.20
2022-12-06T02:46:43.918Z,-5.21
2022-12-06T02:47:21.555Z,-5.22
2022-12-06T02:47:56.546Z,-5.21
2022-12-06T02:48:28.972Z,-5.21
2022-12-06T02:49:06.758Z,-5.19
2022-12-06T02:49:45.032Z,-5.21
2022-12-06T02:50:20.070Z,-5.21
2022-12-06T02:50:58.725Z,-5.20
2022-12-06T02:51:34.646Z,-5.20
2022-12-06T02:52:06.800Z,-5.21
2022-12-06T02:52:45.202Z,-5.19
2022-12-06T02:53:19.889Z,-5.19
2022-12-06T02:53:54.505Z,-5.17
2022-12-06T02:54:31.552Z,-5.17
2022-12-06T02:55:05.036Z,-5.18
2022-12-06T02:55:37.829Z,-5.19
2022-12-06T02:56:12.690Z,-5.18
2022-12-06T02:56:44.851Z,-5.17
2022-12-06T02:57:19.628Z,-5.17
2022-12-06T02:57:57.505Z,-5.16
2022-12-06T02:58:34.669Z,-5.16
2022-12-06T02:59:06.782Z,-5.15
2022-12-06T02:59:41.451Z,-5.14
2022-12-06T03:00:41.749Z,-5.17
2022-12-06T03:01:22.918Z,-5.17
2022-12-06T03:01:58.953Z,-5.18
2022-12-06T03:02:37.344Z,-5.15
2022-12-06T03:03:29.495Z,-5.15
2022-12-06T03:04:31.612Z,-5.16
2022-12-06T03:05:16.618Z,-5.18
2022-12-06T03:06:17.893Z,-5.17
2022-12-06T03:07:05.039Z,-5.18
2022-12-06T03:07:42.777Z,-5.17
2022-12-06T03:08:30.093Z,-5.17
2022-12-06T03:09:13.589Z,-5.18
2022-12-06T03:10:02.238Z,-5.17
2022-12-06T03:10:41.283Z,-5.18
2022-12-06T03:11:13.929Z,-5.17
2022-12-06T03:11:58.513Z,-5.16
2022-12-06T03:12:35.787Z,-5.17
2022-12-06T03:13:15.519Z,-5.19
2022-12-06T03:13:57.317Z,-5.18
2022-12-06T03:14:39.381Z,-5.19
2022-12-06T03:15:16.789Z,-5.19
2022-12-06T03:15:59.149Z,-5.18
2022-12-06T03:16:42.925Z,-5.18
2022-12-06T03:17:24.000Z,-5.17
2022-12-06T03:18:04.391Z,-5.16
2022-12-06T03:18:46.458Z,-5.18
2022-12-06T03:19:21.599Z,-5.18
2022-12-06T03:19:58.907Z,-5.18
2022-12-06T03:20:43.081Z,-5.19
2022-12-06T03:21:19.773Z,-5.20
2022-12-06T03:21:57.787Z,-5.19
2022-12-06T03:22:40.015Z,-5.21
2022-12-06T03:23:14.484Z,-5.21
2022-12-06T03:23:49.559Z,-5.21
2022-12-06T03:24:27.252Z,-5.20
2022-12-06T03:25:00.978Z,-5.19
2022-12-06T03:25:38.287Z,-5.19
2022-12-06T03:26:14.601Z,-5.20
2022-12-06T03:26:50.089Z,-5.21
2022-12-06T03:27:27.032Z,-5.19
2022-12-06T03:28:01.491Z,-5.18
2022-12-06T03:28:39.221Z,-5.18
2022-12-06T03:29:15.012Z,-5.18
2022-12-06T03:29:52.066Z,-5.18
2022-12-06T03:30:27.382Z,-5.18
2022-12-06T03:31:04.550Z,-5.17
2022-12-06T03:31:42.067Z,-5.17
2022-12-06T03:32:20.626Z,-5.16
2022-12-06T03:32:53.093Z,-5.16
2022-12-06T03:33:30.914Z,-5.14
2022-12-06T03:34:11.360Z,-5.16
2022-12-06T03:34:45.094Z,-5.22
2022-12-06T03:35:23.489Z,-5.23
2022-12-06T03:35:57.991Z,-5.21
2022-12-06T03:36:32.103Z,-5.21
2022-12-06T03:37:09.172Z,-5.19
2022-12-06T03:37:47.198Z,-5.19
2022-12-06T03:38:24.019Z,-5.20
2022-12-06T03:39:03.061Z,-5.23
2022-12-06T03:39:41.912Z,-5.25
2022-12-06T03:40:19.502Z,-5.26
2022-12-06T03:40:56.312Z,-5.26
2022-12-06T03:41:36.543Z,-5.25
2022-12-06T03:42:09.918Z,-5.26
2022-12-06T03:42:44.848Z,-5.24
2022-12-06T03:43:17.252Z,-5.22
2022-12-06T03:43:49.710Z,-5.23
2022-12-06T03:44:24.865Z,-5.22
2022-12-06T03:44:57.406Z,-5.22
2022-12-06T03:45:38.020Z,-5.25
2022-12-06T03:46:17.766Z,-5.28
2022-12-06T03:46:56.904Z,-5.29
2022-12-06T03:47:35.317Z,-5.32
2022-12-06T03:48:14.018Z,-5.31
2022-12-06T03:48:50.062Z,-5.31
2022-12-06T03:49:26.785Z,-5.31
2022-12-06T03:50:05.386Z,-5.29
2022-12-06T03:50:41.822Z,-5.29
2022-12-06T03:51:20.936Z,-5.29
2022-12-06T03:51:53.465Z,-5.29
2022-12-06T03:52:25.766Z,-5.28
2022-12-06T03:53:02.143Z,-5.26
2022-12-06T03:53:34.499Z,-5.26
2022-12-06T03:54:08.550Z,-5.26
2022-12-06T03:54:44.197Z,-5.25
2022-12-06T03:55:16.278Z,-5.25
2022-12-06T03:55:48.468Z,-5.26
2022-12-06T03:56:24.215Z,-5.25
2022-12-06T03:56:56.360Z,-5.25
2022-12-06T03:57:28.562Z,-5.24
2022-12-06T03:58:03.288Z,-5.25
2022-12-06T03:58:35.361Z,-5.25
2022-12-06T03:59:08.613Z,-5.27
2022-12-06T03:59:43.327Z,-5.28
2022-12-06T04:00:16.801Z,-5.28
2022-12-06T04:00:48.965Z,-5.28
2022-12-06T04:01:23.796Z,-5.28
2022-12-06T04:01:58.585Z,-5.27
2022-12-06T04:02:30.825Z,-5.27
2022-12-06T04:03:05.734Z,-5.26
2022-12-06T04:03:37.980Z,-5.26
2022-12-06T04:04:10.530Z,-5.25
2022-12-06T04:04:45.359Z,-5.24
2022-12-06T04:05:17.590Z,-5.25
2022-12-06T04:05:49.888Z,-5.26
2022-12-06T04:06:24.586Z,-5.26
2022-12-06T07:13:04.696Z,-4.87
2022-12-06T07:13:38.280Z,-4.85
2022-12-06T07:14:13.025Z,-4.83
2022-12-06T07:14:45.165Z,-4.81
2022-12-06T07:15:17.544Z,-4.78
2022-12-06T07:15:52.209Z,-4.74
2022-12-06T07:16:24.415Z,-4.69
2022-12-06T07:16:59.176Z,-4.64
2022-12-06T07:17:31.386Z,-4.60
2022-12-06T07:18:03.497Z,-4.57
2022-12-06T07:18:38.170Z,-4.53
2022-12-06T07:19:10.273Z,-4.49
2022-12-06T07:19:42.371Z,-4.44
2022-12-06T07:20:17.028Z,-4.39
2022-12-06T07:20:49.954Z,-4.38
2022-12-06T07:21:24.719Z,-4.34
2022-12-06T07:21:56.802Z,-4.31
2022-12-06T07:22:30.275Z,-4.26
2022-12-06T07:23:05.169Z,-4.21
2022-12-06T07:23:37.317Z,-4.18
2022-12-06T07:24:11.997Z,-4.17
2022-12-06T07:24:49.172Z,-4.14
2022-12-06T07:25:26.996Z,-4.09
2022-12-06T07:26:01.773Z,-4.07
2022-12-06T07:26:36.474Z,-4.02
2022-12-06T07:27:08.776Z,-3.97
2022-12-06T07:27:43.570Z,-3.93
2022-12-06T07:28:18.206Z,-3.88
2022-12-06T07:28:51.593Z,-3.85
2022-12-06T07:29:26.536Z,-3.80
2022-12-06T07:29:59.814Z,-3.78
2022-12-06T07:30:32.150Z,-3.77
2022-12-06T07:31:13.807Z,-3.75
2022-12-06T07:31:45.949Z,-3.76
2022-12-06T07:32:20.624Z,-3.74
2022-12-06T07:32:52.733Z,-3.71
2022-12-06T07:33:24.840Z,-3.67
2022-12-06T07:34:01.201Z,-3.63
2022-12-06T07:34:33.574Z,-3.61
2022-12-06T07:35:09.377Z,-3.58
2022-12-06T07:36:10.841Z,-3.57
2022-12-06T07:36:36.272Z,-3.55
2022-12-06T07:37:08.685Z,-3.54
2022-12-06T07:37:42.433Z,-3.51
2022-12-06T07:38:17.155Z,-3.51
2022-12-06T07:38:50.825Z,-3.50
2022-12-06T07:39:26.734Z,-3.51
2022-12-06T07:39:59.271Z,-3.51
2022-12-06T07:41:02.860Z,-3.50
2022-12-06T07:41:40.697Z,-3.54
2022-12-06T07:42:36.995Z,-3.55
2022-12-06T07:43:25.072Z,-3.55
2022-12-06T07:44:16.145Z,-3.54
2022-12-06T07:45:08.887Z,-3.52
2022-12-06T07:45:43.606Z,-3.49
2022-12-06T07:46:15.716Z,-3.46
2022-12-06T07:46:48.848Z,-3.43
2022-12-06T07:47:23.823Z,-3.42
2022-12-06T07:47:55.909Z,-3.39
2022-12-06T07:48:30.656Z,-3.39
2022-12-06T07:49:02.852Z,-3.38
2022-12-06T07:49:35.049Z,-3.38
2022-12-06T07:50:17.530Z,-3.37
2022-12-06T07:50:52.458Z,-3.35
2022-12-06T07:51:24.566Z,-3.34
2022-12-06T07:51:59.670Z,-3.32
2022-12-06T07:52:33.044Z,-3.31
2022-12-06T07:53:08.097Z,-3.28
2022-12-06T07:53:40.228Z,-3.26
2022-12-06T07:54:15.326Z,-3.25
2022-12-06T07:54:47.402Z,-3.24
2022-12-06T07:55:22.459Z,-3.24
2022-12-06T07:55:54.515Z,-3.25
2022-12-06T07:56:26.661Z,-3.25
2022-12-06T07:57:01.387Z,-3.23
2022-12-06T07:57:38.585Z,-3.22
2022-12-06T07:58:16.492Z,-3.23
2022-12-06T07:58:48.651Z,-3.22
2022-12-06T07:59:23.447Z,-3.22
2022-12-06T07:59:58.817Z,-3.20
2022-12-06T08:00:31.128Z,-3.21
2022-12-06T08:01:03.797Z,-3.19
2022-12-06T08:01:38.613Z,-3.18
2022-12-06T08:02:18.951Z,-3.16
2022-12-06T08:02:53.703Z,-3.16
2022-12-06T08:03:25.840Z,-3.13
2022-12-06T08:03:59.850Z,-3.12
2022-12-06T08:04:34.684Z,-3.13
2022-12-06T08:05:07.749Z,-3.09
2022-12-06T08:05:40.336Z,-3.06
2022-12-06T08:06:15.072Z,-3.05
2022-12-06T08:06:47.231Z,-3.03
2022-12-06T08:07:22.523Z,-3.03
2022-12-06T08:07:54.747Z,-3.04
2022-12-06T08:08:29.183Z,-3.03
2022-12-06T08:09:04.157Z,-3.01
2022-12-06T08:09:36.323Z,-2.99
2022-12-06T08:10:11.786Z,-2.97
2022-12-06T08:10:43.874Z,-2.96
2022-12-06T08:11:15.958Z,-2.95
2022-12-06T08:11:50.629Z,-2.94
2022-12-06T08:12:23.390Z,-2.90
2022-12-06T08:12:58.163Z,-2.87
2022-12-06T08:13:30.420Z,-2.83
2022-12-06T08:14:02.888Z,-2.81
2022-12-06T08:14:40.574Z,-2.81
2022-12-06T08:15:13.332Z,-2.82
2022-12-06T08:15:48.119Z,-2.80
2022-12-06T08:16:20.370Z,-2.79
2022-12-06T08:16:52.474Z,-2.76
2022-12-06T08:17:27.180Z,-2.73
2022-12-06T08:17:59.511Z,-2.69
2022-12-06T08:18:32.031Z,-2.69
2022-12-06T08:19:06.826Z,-2.68
2022-12-06T08:19:39.014Z,-2.66
2022-12-06T08:20:12.598Z,-2.66
2022-12-06T08:20:47.398Z,-2.65
2022-12-06T08:21:19.573Z,-2.64
2022-12-06T08:21:54.373Z,-2.64
2022-12-06T08:22:26.602Z,-2.61
2022-12-06T08:22:58.710Z,-2.61
2022-12-06T08:23:34.557Z,-2.60
2022-12-06T08:24:07.553Z,-2.61
2022-12-06T08:24:42.219Z,-2.61
2022-12-06T08:25:14.391Z,-2.59
2022-12-06T08:25:46.500Z,-2.57
2022-12-06T08:26:21.453Z,-2.57
2022-12-06T08:26:53.710Z,-2.56
2022-12-06T08:27:25.949Z,-2.55
2022-12-06T08:28:00.643Z,-2.55
2022-12-06T08:28:34.094Z,-2.53
2022-12-06T08:29:09.021Z,-2.54
2022-12-06T08:29:45.455Z,-2.53
2022-12-06T08:30:20.394Z,-2.53
2022-12-06T08:30:52.826Z,-2.52
2022-12-06T08:31:25.191Z,-2.51
2022-12-06T08:31:59.998Z,-2.51
2022-12-06T08:32:32.137Z,-2.52
2022-12-06T08:33:04.316Z,-2.52
2022-12-06T08:33:39.409Z,-2.56
2022-12-06T08:34:12.638Z,-2.54
2022-12-06T08:34:47.688Z,-2.54
2022-12-06T08:35:19.773Z,-2.55
2022-12-06T08:35:52.458Z,-2.54
2022-12-06T08:36:27.867Z,-2.56
2022-12-06T08:37:03.307Z,-2.55
2022-12-06T08:37:38.529Z,-2.56
2022-12-06T08:38:10.753Z,-2.56
2022-12-06T08:38:43.438Z,-2.54
2022-12-06T08:39:18.237Z,-2.50
2022-12-06T08:39:50.322Z,-2.48
2022-12-06T08:40:22.815Z,-2.46
2022-12-06T08:40:57.539Z,-2.45
2022-12-06T08:41:44.629Z,-2.45
2022-12-06T08:42:22.045Z,-2.50
2022-12-06T08:42:59.509Z,-2.55
2022-12-06T08:43:32.506Z,-2.57
2022-12-06T08:44:05.435Z,-2.55
2022-12-06T08:44:40.204Z,-2.56
2022-12-06T08:45:15.012Z,-2.56
2022-12-06T08:45:50.829Z,-2.57
2022-12-06T08:46:23.465Z,-2.60
2022-12-06T08:46:59.637Z,-2.58
2022-12-06T08:47:32.009Z,-2.58
2022-12-06T08:48:07.021Z,-2.57
2022-12-06T08:48:42.993Z,-2.57
2022-12-06T08:49:20.278Z,-2.56
2022-12-06T08:49:52.424Z,-2.53
2022-12-06T08:50:24.644Z,-2.55
2022-12-06T08:50:59.312Z,-2.51
2022-12-06T08:51:33.357Z,-2.48
2022-12-06T08:52:08.126Z,-2.45
2022-12-06T08:52:40.229Z,-2.43
2022-12-06T08:53:12.303Z,-2.41
2022-12-06T08:53:47.051Z,-2.43
2022-12-06T08:54:22.063Z,-2.42
2022-12-06T08:54:56.733Z,-2.44
2022-12-06T08:55:28.893Z,-2.44
2022-12-06T08:56:03.071Z,-2.45
2022-12-06T08:56:39.897Z,-2.47
2022-12-06T08:57:12.158Z,-2.50
2022-12-06T08:57:46.833Z,-2.47
2022-12-06T08:58:19.033Z,-2.45
2022-12-06T08:58:55.890Z,-2.43
2022-12-06T08:59:28.142Z,-2.42
2022-12-06T09:00:03.181Z,-2.41
2022-12-06T09:00:38.225Z,-2.38
2022-12-06T09:01:12.854Z,-2.38
2022-12-06T09:01:48.418Z,-2.36
2022-12-06T09:02:20.626Z,-2.32
2022-12-06T09:02:52.826Z,-2.32
2022-12-06T09:03:28.146Z,-2.31
2022-12-06T09:04:01.860Z,-2.26
2022-12-06T09:04:36.745Z,-2.24
2022-12-06T09:05:09.897Z,-2.23
2022-12-06T09:05:42.201Z,-2.23
2022-12-06T09:06:17.422Z,-2.25
2022-12-06T09:06:50.201Z,-2.24
2022-12-06T09:07:26.487Z,-2.26
2022-12-06T09:07:58.647Z,-2.27
2022-12-06T09:08:30.851Z,-2.27
2022-12-06T09:09:05.612Z,-2.29
2022-12-06T09:09:37.730Z,-2.30
2022-12-06T09:10:13.653Z,-2.30
2022-12-06T09:10:45.809Z,-2.34
2022-12-06T09:11:18.993Z,-2.34
2022-12-06T09:11:53.725Z,-2.31
2022-12-06T09:12:26.106Z,-2.31
2022-12-06T09:12:58.192Z,-2.30
2022-12-06T09:13:33.136Z,-2.31
2022-12-06T09:14:05.552Z,-2.30
2022-12-06T09:14:40.527Z,-2.30
2022-12-06T09:15:12.616Z,-2.32
2022-12-06T09:15:47.419Z,-2.32
2022-12-06T09:16:24.052Z,-2.30
2022-12-06T09:16:56.350Z,-2.32
2022-12-06T09:17:31.104Z,-2.33
2022-12-06T09:18:03.195Z,-2.33
2022-12-06T09:18:38.405Z,-2.29
2022-12-06T09:19:11.360Z,-2.27
2022-12-06T09:19:46.253Z,-2.26
2022-12-06T09:20:18.549Z,-2.24
2022-12-06T09:20:50.724Z,-2.21
2022-12-06T09:21:28.993Z,-2.22
2022-12-06T09:22:01.169Z,-2.22
2022-12-06T09:22:35.945Z,-2.26
2022-12-06T09:23:08.043Z,-2.27
2022-12-06T09:23:42.787Z,-2.31
2022-12-06T09:24:17.650Z,-2.35
2022-12-06T09:24:52.443Z,-2.38
2022-12-06T09:25:24.644Z,-2.39
2022-12-06T09:25:56.772Z,-2.40
2022-12-06T09:26:31.798Z,-2.40
2022-12-06T09:27:04.047Z,-2.40
2022-12-06T09:27:38.827Z,-2.36
2022-12-06T09:28:11.942Z,-2.33
2022-12-06T09:28:46.469Z,-2.28
2022-12-06T09:29:22.070Z,-2.25
2022-12-06T09:29:54.307Z,-2.22
2022-12-06T09:30:26.867Z,-2.21
2022-12-06T09:31:05.007Z,-2.17
2022-12-06T09:31:39.580Z,-2.16
2022-12-06T09:32:14.363Z,-2.16
2022-12-06T09:32:48.377Z,-2.16
2022-12-06T09:33:24.440Z,-2.13
2022-12-06T09:33:56.763Z,-2.08
2022-12-06T09:34:31.544Z,-2.03
2022-12-06T09:35:04.152Z,-1.98
2022-12-06T09:35:39.622Z,-1.98
2022-12-06T09:36:15.284Z,-1.99
2022-12-06T09:36:55.022Z,-1.99
2022-12-06T09:37:27.550Z,-2.04
2022-12-06T09:38:03.960Z,-2.04
2022-12-06T09:38:38.603Z,-2.08
2022-12-06T09:39:18.481Z,-2.11
2022-12-06T09:39:55.865Z,-2.16
2022-12-06T09:40:41.310Z,-2.18
2022-12-06T09:41:30.441Z,-2.20
2022-12-06T09:42:35.772Z,-2.23
2022-12-06T09:43:24.363Z,-2.31
2022-12-06T09:44:15.898Z,-2.33
2022-12-06T09:45:10.670Z,-2.36
2022-12-06T09:46:15.228Z,-2.38
2022-12-06T09:47:00.122Z,-2.40
2022-12-06T09:47:51.165Z,-2.42
2022-12-06T09:48:49.264Z,-2.42
2022-12-06T09:49:33.042Z,-2.41
2022-12-06T09:50:15.426Z,-2.41
2022-12-06T09:51:01.598Z,-2.40
2022-12-06T09:51:48.669Z,-2.38
2022-12-06T09:52:43.731Z,-2.35
2022-12-06T09:53:24.001Z,-2.34
2022-12-06T09:54:12.336Z,-2.33
2022-12-06T09:55:08.721Z,-2.35
2022-12-06T09:55:54.342Z,-2.34
2022-12-06T09:56:39.035Z,-2.34
2022-12-06T09:57:17.655Z,-2.33
2022-12-06T09:58:00.057Z,-2.33
2022-12-06T09:58:46.299Z,-2.31
2022-12-06T09:59:32.513Z,-2.32
2022-12-06T10:00:13.776Z,-2.29
2022-12-06T10:00:56.685Z,-2.29
2022-12-06T10:01:43.342Z,-2.26
2022-12-06T10:02:35.323Z,-2.24
2022-12-06T10:03:39.690Z,-2.20
2022-12-06T10:04:40.941Z,-2.24
2022-12-06T10:05:35.184Z,-2.27
2022-12-06T10:06:14.823Z,-2.22
2022-12-06T10:06:55.810Z,-2.15
2022-12-06T10:07:37.497Z,-2.09
2022-12-06T10:08:26.973Z,-2.01
2022-12-06T16:25:57.623Z,-3.29
2022-12-06T16:26:30.804Z,-3.27
2022-12-06T16:27:05.261Z,-3.27
2022-12-06T16:27:40.104Z,-3.25
2022-12-06T16:28:13.698Z,-3.23
2022-12-06T16:28:48.391Z,-3.21
2022-12-06T16:29:23.692Z,-3.19
2022-12-06T16:29:58.417Z,-3.17
2022-12-06T16:30:34.667Z,-3.14
2022-12-06T16:31:07.336Z,-3.12
2022-12-06T16:31:42.400Z,-3.11
2022-12-06T16:32:14.760Z,-3.06
2022-12-06T16:32:46.967Z,-3.03
2022-12-06T16:33:23.339Z,-2.99
2022-12-06T16:33:56.895Z,-2.95
2022-12-06T16:34:31.578Z,-2.91
2022-12-06T16:35:04.306Z,-2.87
2022-12-06T16:35:36.580Z,-2.84
2022-12-06T16:36:21.114Z,-2.80
2022-12-06T16:36:55.524Z,-2.78
2022-12-06T16:37:27.615Z,-2.74
2022-12-06T16:38:02.709Z,-2.73
2022-12-06T16:38:35.248Z,-2.71
2022-12-06T16:39:12.623Z,-2.69
2022-12-06T16:39:44.742Z,-2.69
2022-12-06T16:40:19.794Z,-2.66
2022-12-06T16:41:02.191Z,-2.66
2022-12-06T16:41:37.139Z,-2.65
2022-12-06T16:42:11.941Z,-2.63
2022-12-06T16:42:45.120Z,-2.60
2022-12-06T16:43:17.214Z,-2.59
2022-12-06T16:43:52.621Z,-2.58
2022-12-06T16:44:25.038Z,-2.55
2022-12-06T16:45:00.157Z,-2.53
2022-12-06T16:45:35.460Z,-2.50
2022-12-06T16:46:23.969Z,-2.49
2022-12-06T16:46:56.604Z,-2.49
2022-12-06T16:47:31.491Z,-2.48
2022-12-06T16:48:03.848Z,-2.48
2022-12-06T16:48:38.586Z,-2.47
2022-12-06T16:49:44.815Z,-2.50
2022-12-06T16:50:19.206Z,-2.52
2022-12-06T16:50:51.317Z,-2.54
2022-12-06T16:51:26.834Z,-2.52
2022-12-06T16:51:59.028Z,-2.53
2022-12-06T16:52:33.852Z,-2.51
2022-12-06T16:53:06.111Z,-2.52
2022-12-06T16:53:40.867Z,-2.49
2022-12-06T16:54:13.116Z,-2.51
2022-12-06T16:54:47.971Z,-2.50
2022-12-06T16:55:20.553Z,-2.49
2022-12-06T16:55:57.988Z,-2.48
2022-12-06T16:56:31.092Z,-2.48
2022-12-06T16:57:05.813Z,-2.45
2022-12-06T16:57:38.316Z,-2.44
2022-12-06T16:58:10.968Z,-2.43
2022-12-06T16:58:45.763Z,-2.43
2022-12-06T16:59:18.605Z,-2.41
2022-12-06T16:59:53.277Z,-2.40
2022-12-06T17:00:25.939Z,-2.38
2022-12-06T17:01:05.036Z,-2.35
2022-12-06T17:01:46.112Z,-2.34
2022-12-06T17:02:29.495Z,-2.31
2022-12-06T17:03:01.671Z,-2.32
2022-12-06T17:03:33.832Z,-2.29
2022-12-06T17:04:11.172Z,-2.29
2022-12-06T17:04:43.425Z,-2.31
2022-12-06T17:05:22.655Z,-2.31
2022-12-06T17:05:54.783Z,-2.34
2022-12-06T17:06:30.769Z,-2.37
2022-12-06T17:07:02.888Z,-2.38
2022-12-06T17:07:35.967Z,-2.37
2022-12-06T17:08:11.135Z,-2.33